Jamestown, Rhode Island
Current Conditions -  °F | °C
As of 2:53 AM on Thursday 29 Jan 2015 (Local Time) from KUUU Reporting Station
Clear Clear  
Wind Chill:   Ceiling: Unl
Heat Index: 16°   Visibility: 10mi
Dew Point:   Wind: 8mph
Humidity: 57%   Direction: 10°N
Pressure: 30.26"   Gusts: NA
Location:  41.5°N, 71.37°W
Report Text: KUUU 290753Z AUTO 01007KT 10SM CLR M09/M16 A3026 RMK AO2 SLP248 T10891161
Loading
Personal Weather Stations






























Interactive Weather Map New forecast layout! Learn more

10-Day Weather Forecast

Advertisements
Track Severe Weather on mobile